createdAt,value
2022-09-17T00:01:48.068Z,0.80
2022-09-17T00:04:15.914Z,0.87
2022-09-17T00:06:43.785Z,0.87
2022-09-17T00:09:11.795Z,0.80
2022-09-17T00:11:42.002Z,0.90
2022-09-17T00:14:15.322Z,0.97
2022-09-17T00:16:44.539Z,0.80
2022-09-17T00:19:14.821Z,0.87
2022-09-17T00:21:42.868Z,0.70
2022-09-17T00:24:11.988Z,0.83
2022-09-17T00:26:39.846Z,0.80
2022-09-17T00:29:07.848Z,0.83
2022-09-17T00:31:37.217Z,0.70
2022-09-17T00:34:06.056Z,0.70
2022-09-17T00:36:35.642Z,0.83
2022-09-17T00:39:08.454Z,0.83
2022-09-17T00:41:36.881Z,0.80
2022-09-17T00:44:38.057Z,0.90
2022-09-17T00:47:08.788Z,0.67
2022-09-17T00:49:36.879Z,0.80
2022-09-17T00:52:07.169Z,0.73
2022-09-17T00:54:35.087Z,0.80
2022-09-17T00:57:02.965Z,0.80
2022-09-17T00:59:30.795Z,0.57
2022-09-17T01:01:58.659Z,0.60
2022-09-17T01:04:28.611Z,0.70
2022-09-17T01:07:01.501Z,0.70
2022-09-17T01:09:31.952Z,0.87
2022-09-17T01:12:21.701Z,0.80
2022-09-17T01:14:57.992Z,0.70
2022-09-17T01:17:30.314Z,0.70
2022-09-17T01:20:23.487Z,0.80
2022-09-17T01:23:00.164Z,0.80
2022-09-17T01:25:32.978Z,0.80
2022-09-17T01:28:22.186Z,0.70
2022-09-17T01:31:19.488Z,0.70
2022-09-17T01:33:52.181Z,0.77
2022-09-17T01:36:25.527Z,1.10
2022-09-17T01:38:55.690Z,0.70
2022-09-17T01:41:28.632Z,0.70
2022-09-17T01:43:58.891Z,0.80
2022-09-17T01:46:31.071Z,0.80
2022-09-17T01:49:03.046Z,0.60
2022-09-17T01:51:32.441Z,0.70
2022-09-17T01:54:02.780Z,0.70
2022-09-17T01:56:32.143Z,0.70
2022-09-17T01:59:03.013Z,0.73
2022-09-17T02:01:32.992Z,0.60
2022-09-17T02:04:02.878Z,0.67
2022-09-17T02:06:32.498Z,0.70
2022-09-17T02:09:02.210Z,0.90
2022-09-17T02:11:30.047Z,0.80
2022-09-17T02:13:59.690Z,0.80
2022-09-17T02:16:28.775Z,0.70
2022-09-17T02:19:10.292Z,0.50
2022-09-17T02:21:47.021Z,0.77
2022-09-17T02:24:18.890Z,0.80
2022-09-17T02:26:48.950Z,1.13
2022-09-17T02:29:20.862Z,0.70
2022-09-17T02:31:48.790Z,0.80
2022-09-17T02:34:18.240Z,0.87
2022-09-17T02:36:46.783Z,0.80
2022-09-17T02:39:14.620Z,0.73
2022-09-17T02:41:46.996Z,0.80
2022-09-17T02:44:19.944Z,0.80
2022-09-17T02:46:55.988Z,0.90
2022-09-17T02:49:39.719Z,0.70
2022-09-17T02:52:11.310Z,0.80
2022-09-17T02:54:42.548Z,0.70
2022-09-17T02:57:16.048Z,0.80
2022-09-17T02:59:47.863Z,0.70
2022-09-17T03:02:18.508Z,0.90
2022-09-17T03:04:48.273Z,0.70
2022-09-17T03:07:16.113Z,0.80
2022-09-17T03:09:44.169Z,0.73
2022-09-17T03:12:11.999Z,0.60
2022-09-17T03:14:39.927Z,0.90
2022-09-17T03:17:07.893Z,0.90
2022-09-17T03:19:35.764Z,1.40
2022-09-17T03:22:04.986Z,3.23
2022-09-17T03:24:32.844Z,10.00
2022-09-17T03:27:00.688Z,1.90
2022-09-17T03:29:28.539Z,5.50
2022-09-17T03:31:56.426Z,7.27
2022-09-17T03:34:24.305Z,8.20
2022-09-17T03:36:52.178Z,4.07
2022-09-17T03:39:21.382Z,7.40
2022-09-17T03:41:49.253Z,9.93
2022-09-17T03:44:18.641Z,13.00
2022-09-17T03:46:46.554Z,13.10
2022-09-17T03:49:14.480Z,9.30
2022-09-17T03:51:42.332Z,11.13
2022-09-17T03:54:10.647Z,10.70
2022-09-17T03:56:39.846Z,12.77
2022-09-17T03:59:07.774Z,12.13
2022-09-17T04:01:36.236Z,11.93
2022-09-17T04:04:04.465Z,9.37
2022-09-17T04:06:32.324Z,8.43
2022-09-17T04:09:01.017Z,10.97
2022-09-17T04:11:28.863Z,9.87
2022-09-17T04:13:58.066Z,10.90
2022-09-17T04:16:26.029Z,10.60
2022-09-17T04:18:54.013Z,8.10
2022-09-17T04:21:21.881Z,9.47
2022-09-17T04:23:49.733Z,8.13
2022-09-17T04:26:17.576Z,12.10
2022-09-17T04:28:45.427Z,8.63
2022-09-17T04:31:14.685Z,8.10
2022-09-17T04:33:42.579Z,11.07
2022-09-17T04:36:10.459Z,8.83
2022-09-17T04:38:38.305Z,9.17
2022-09-17T04:41:08.021Z,7.13
2022-09-17T04:43:35.920Z,9.80
2022-09-17T04:46:03.785Z,9.97
2022-09-17T04:48:33.042Z,6.67
2022-09-17T04:51:00.916Z,9.67
2022-09-17T04:53:28.809Z,11.70
2022-09-17T04:55:56.678Z,10.20
2022-09-17T04:58:24.544Z,12.57
2022-09-17T05:00:52.476Z,9.47
2022-09-17T05:03:20.370Z,5.63
2022-09-17T05:05:49.560Z,8.93
2022-09-17T05:08:17.402Z,9.43
2022-09-17T05:10:45.238Z,5.63
2022-09-17T05:13:13.104Z,6.43
2022-09-17T05:15:41.071Z,6.77
2022-09-17T05:18:08.973Z,6.80
2022-09-17T05:20:36.875Z,7.37
2022-09-17T05:23:06.098Z,7.70
2022-09-17T05:25:33.962Z,6.67
2022-09-17T05:28:02.230Z,6.20
2022-09-17T05:30:30.285Z,7.10
2022-09-17T05:33:01.991Z,5.60
2022-09-17T05:35:30.081Z,7.47
2022-09-17T05:37:59.579Z,6.90
2022-09-17T05:40:29.114Z,6.27
2022-09-17T05:42:59.546Z,6.93
2022-09-17T05:45:27.641Z,7.70
2022-09-17T05:47:56.510Z,7.17
2022-09-17T05:50:24.653Z,4.87
2022-09-17T05:52:52.660Z,7.87
2022-09-17T05:55:22.177Z,6.50
2022-09-17T05:57:51.430Z,4.77
2022-09-17T06:00:19.468Z,4.57
2022-09-17T06:02:47.368Z,5.43
2022-09-17T06:05:15.405Z,6.23
2022-09-17T06:07:43.298Z,6.17
2022-09-17T06:10:11.327Z,5.00
2022-09-17T06:12:39.184Z,4.17
2022-09-17T06:15:09.285Z,6.63
2022-09-17T06:17:37.312Z,5.73
2022-09-17T06:20:06.249Z,5.23
2022-09-17T06:22:34.118Z,4.57
2022-09-17T06:25:03.881Z,4.27
2022-09-17T06:27:33.053Z,4.23
2022-09-17T06:30:00.989Z,5.30
2022-09-17T06:32:30.279Z,4.90
2022-09-17T06:34:58.563Z,6.70
2022-09-17T06:37:28.863Z,4.10
2022-09-17T06:39:56.750Z,5.57
2022-09-17T06:42:24.641Z,4.80
2022-09-17T06:44:52.493Z,3.93
2022-09-17T06:47:20.609Z,3.87
2022-09-17T06:49:49.806Z,3.57
2022-09-17T06:52:17.789Z,3.73
2022-09-17T06:54:45.632Z,3.63
2022-09-17T06:57:13.494Z,3.50
2022-09-17T06:59:42.892Z,3.80
2022-09-17T07:02:10.795Z,3.57
2022-09-17T07:04:38.735Z,4.37
2022-09-17T07:07:08.993Z,3.30
2022-09-17T07:09:36.882Z,3.73
2022-09-17T07:12:09.072Z,4.07
2022-09-17T07:14:36.970Z,3.00
2022-09-17T07:17:05.037Z,3.70
2022-09-17T07:19:32.949Z,3.53
2022-09-17T07:22:00.796Z,3.90
2022-09-17T07:24:32.894Z,3.30
2022-09-17T07:27:01.609Z,4.73
2022-09-17T07:29:31.494Z,4.00
2022-09-17T07:31:59.449Z,3.50
2022-09-17T07:34:28.042Z,3.53
2022-09-17T07:36:55.900Z,3.20
2022-09-17T07:39:23.762Z,3.07
2022-09-17T07:41:52.975Z,3.00
2022-09-17T07:44:22.279Z,4.17
2022-09-17T07:46:50.272Z,2.63
2022-09-17T07:49:18.165Z,2.90
2022-09-17T07:51:46.741Z,3.40
2022-09-17T07:54:14.607Z,3.30
2022-09-17T07:56:42.483Z,3.03
2022-09-17T07:59:11.982Z,3.03
2022-09-17T08:01:40.647Z,3.50
2022-09-17T08:04:08.610Z,2.97
2022-09-17T08:06:38.026Z,2.90
2022-09-17T08:09:06.178Z,3.20
2022-09-17T08:14:28.409Z,2.70
2022-09-17T08:16:57.543Z,2.50
2022-09-17T08:19:25.496Z,2.37
2022-09-17T08:21:53.387Z,2.87
2022-09-17T08:24:21.264Z,2.50
2022-09-17T08:26:49.120Z,3.10
2022-09-17T08:29:16.972Z,2.90
2022-09-17T08:31:46.243Z,2.53
2022-09-17T08:34:14.264Z,3.17
2022-09-17T08:36:42.140Z,3.20
2022-09-17T08:39:12.086Z,2.70
2022-09-17T08:41:53.531Z,2.83
2022-09-17T08:44:28.629Z,2.50
2022-09-17T08:47:01.830Z,2.50
2022-09-17T08:49:34.825Z,2.60
2022-09-17T08:52:12.366Z,2.60
2022-09-17T08:54:42.411Z,2.60
2022-09-17T08:57:17.527Z,2.40
2022-09-17T08:59:46.839Z,2.30
2022-09-17T09:02:22.144Z,2.13
2022-09-17T09:04:59.919Z,2.10
2022-09-17T09:07:28.660Z,2.60
2022-09-17T09:10:01.755Z,2.50
2022-09-17T09:12:29.905Z,2.57
2022-09-17T09:14:59.492Z,2.30
2022-09-17T09:17:30.477Z,3.20
2022-09-17T09:19:58.371Z,2.20
2022-09-17T09:22:46.556Z,2.60
2022-09-17T09:25:24.404Z,2.20
2022-09-17T09:28:06.429Z,2.23
2022-09-17T09:30:44.464Z,2.40
2022-09-17T09:33:15.404Z,2.17
2022-09-17T09:35:43.974Z,2.43
2022-09-17T09:38:19.426Z,2.73
2022-09-17T09:40:49.782Z,2.13
2022-09-17T09:43:19.919Z,2.10
2022-09-17T09:45:58.792Z,1.87
2022-09-17T09:48:30.958Z,2.07
2022-09-17T09:51:07.545Z,2.00
2022-09-17T09:53:40.952Z,2.17
2022-09-17T09:56:19.241Z,2.00
2022-09-17T09:58:47.560Z,1.93
2022-09-17T10:01:16.999Z,2.27
2022-09-17T10:03:46.986Z,1.53
2022-09-17T10:06:15.060Z,2.33
2022-09-17T10:08:44.062Z,1.97
2022-09-17T10:11:21.026Z,1.97
2022-09-17T10:13:48.898Z,1.80
2022-09-17T10:16:20.508Z,1.70
2022-09-17T10:18:50.696Z,2.13
2022-09-17T10:21:22.152Z,1.93
2022-09-17T10:23:50.131Z,1.77
2022-09-17T10:26:23.447Z,1.67
2022-09-17T10:28:54.275Z,1.80
2022-09-17T10:31:22.231Z,1.80
2022-09-17T10:34:12.916Z,1.70
2022-09-17T10:36:42.350Z,1.80
2022-09-17T10:39:21.034Z,1.60
2022-09-17T10:41:55.083Z,2.30
2022-09-17T10:44:23.586Z,1.80
2022-09-17T10:46:51.974Z,1.50
2022-09-17T10:49:28.157Z,1.63
2022-09-17T10:52:05.709Z,1.70
2022-09-17T10:54:49.735Z,1.50
2022-09-17T10:57:20.516Z,1.80
2022-09-17T10:59:56.352Z,1.50
2022-09-17T11:02:42.043Z,1.70
2022-09-17T11:05:23.505Z,1.97
2022-09-17T11:07:53.476Z,1.80
2022-09-17T11:10:24.201Z,1.60
2022-09-17T11:13:04.385Z,1.83
2022-09-17T11:15:38.839Z,1.70
2022-09-17T11:18:22.969Z,1.60
2022-09-17T11:21:03.714Z,1.60
2022-09-17T11:24:04.146Z,1.60
2022-09-17T11:26:33.659Z,1.77
2022-09-17T11:29:07.868Z,1.80
2022-09-17T11:31:38.413Z,1.70
2022-09-17T11:34:19.796Z,1.57
2022-09-17T11:36:51.723Z,1.73
2022-09-17T11:39:22.149Z,1.77
2022-09-17T11:41:50.270Z,2.07
2022-09-17T11:44:21.730Z,1.70
2022-09-17T11:46:50.856Z,1.30
2022-09-17T11:49:23.342Z,1.73
2022-09-17T11:51:55.114Z,1.43
2022-09-17T11:54:24.741Z,1.60
2022-09-17T11:56:53.505Z,1.70
2022-09-17T11:59:23.872Z,1.30
2022-09-17T12:01:53.775Z,1.50
2022-09-17T12:04:33.499Z,1.33
2022-09-17T12:07:04.299Z,1.50
2022-09-17T12:09:33.977Z,1.30
2022-09-17T12:12:03.157Z,1.40
2022-09-17T12:14:32.900Z,1.43
2022-09-17T12:17:01.289Z,1.30
2022-09-17T12:19:32.035Z,1.30
2022-09-17T12:22:05.438Z,1.40
2022-09-17T12:24:33.373Z,1.63
2022-09-17T12:27:15.237Z,1.40
2022-09-17T12:30:04.638Z,1.20
2022-09-17T12:33:11.768Z,1.30
2022-09-17T12:36:04.454Z,1.70
2022-09-17T12:39:02.930Z,1.27
2022-09-17T12:41:34.975Z,1.40
2022-09-17T12:44:16.947Z,1.40
2022-09-17T12:46:58.255Z,1.30
2022-09-17T12:49:47.832Z,1.33
2022-09-17T12:52:18.933Z,1.20
2022-09-17T12:55:16.173Z,1.40
2022-09-17T12:57:48.143Z,1.30
2022-09-17T13:00:16.452Z,1.40
2022-09-17T13:02:46.489Z,1.50
2022-09-17T13:05:46.364Z,1.30
2022-09-17T13:08:21.490Z,1.47
2022-09-17T13:11:01.832Z,1.60
2022-09-17T13:13:36.080Z,1.30
2022-09-17T13:16:13.415Z,1.47
2022-09-17T13:19:05.567Z,1.63
2022-09-17T13:21:40.391Z,1.70
2022-09-17T13:24:16.164Z,1.30
2022-09-17T13:26:48.107Z,1.33
2022-09-17T13:29:43.339Z,1.40
2022-09-17T13:32:11.787Z,1.20
2022-09-17T13:34:39.698Z,1.23
2022-09-17T13:37:10.103Z,1.30
2022-09-17T13:39:43.049Z,1.47
2022-09-17T13:42:20.977Z,1.13
2022-09-17T13:44:51.451Z,1.10
2022-09-17T13:47:29.420Z,1.30
2022-09-17T13:50:01.791Z,1.27
2022-09-17T13:52:36.196Z,1.40
2022-09-17T13:55:04.113Z,1.30
2022-09-17T13:57:34.368Z,1.40
2022-09-17T14:00:02.644Z,1.40
2022-09-17T14:02:39.793Z,1.30
2022-09-17T14:05:31.876Z,1.37
2022-09-17T14:08:28.549Z,1.40
2022-09-17T14:10:56.665Z,1.20
2022-09-17T14:13:45.137Z,2.10
2022-09-17T14:16:50.355Z,2.20
2022-09-17T14:19:27.868Z,8.00
2022-09-17T14:22:01.483Z,2.20
2022-09-17T14:24:35.249Z,6.70
2022-09-17T14:27:18.626Z,4.13
2022-09-17T14:30:08.018Z,9.53
2022-09-17T14:32:40.578Z,4.13
2022-09-17T14:35:19.977Z,4.17
2022-09-17T14:37:51.832Z,5.90
2022-09-17T14:40:20.274Z,5.10
2022-09-17T14:42:49.042Z,4.63
2022-09-17T14:45:20.748Z,3.47
2022-09-17T14:47:48.603Z,4.73
2022-09-17T14:50:21.637Z,3.87
2022-09-17T14:52:49.911Z,2.70
2022-09-17T14:55:19.239Z,7.50
2022-09-17T14:57:47.589Z,5.57
2022-09-17T15:00:22.815Z,2.23
2022-09-17T15:02:52.673Z,5.00
2022-09-17T15:05:26.995Z,4.37
2022-09-17T15:08:07.049Z,7.87
2022-09-17T15:10:36.837Z,2.73
2022-09-17T15:13:07.784Z,6.43
2022-09-17T15:15:37.153Z,3.97
2022-09-17T15:18:05.043Z,4.73
2022-09-17T15:20:32.961Z,7.13
2022-09-17T15:23:04.709Z,5.17
2022-09-17T15:25:32.705Z,3.57
2022-09-17T15:28:01.769Z,5.77
2022-09-17T15:30:29.885Z,5.17
2022-09-17T15:32:59.914Z,4.07
2022-09-17T15:35:30.195Z,3.93
2022-09-17T15:40:50.791Z,2.10
2022-09-17T15:43:20.003Z,1.93
2022-09-17T15:45:47.860Z,2.23
2022-09-17T15:48:37.402Z,2.47
2022-09-17T15:51:06.874Z,2.10
2022-09-17T15:53:35.638Z,1.77
2022-09-17T15:56:07.289Z,1.60
2022-09-17T15:58:38.056Z,3.00
2022-09-17T16:01:53.937Z,2.47
2022-09-17T16:04:30.425Z,2.63
2022-09-17T16:07:16.887Z,3.20
2022-09-17T16:09:47.796Z,1.70
2022-09-17T16:12:17.767Z,1.87
2022-09-17T16:14:47.054Z,1.63
2022-09-17T16:17:27.937Z,1.70
2022-09-17T16:19:58.293Z,1.60
2022-09-17T16:22:29.421Z,1.70
2022-09-17T16:24:57.302Z,1.77
2022-09-17T16:27:25.779Z,3.93
2022-09-17T16:29:53.941Z,3.43
2022-09-17T16:32:21.852Z,1.70
2022-09-17T16:34:49.752Z,1.63
2022-09-17T16:37:19.097Z,2.30
2022-09-17T16:39:47.016Z,1.77
2022-09-17T16:42:19.649Z,1.60
2022-09-17T16:44:47.535Z,1.97
2022-09-17T16:47:17.332Z,1.60
2022-09-17T16:49:45.257Z,1.97
2022-09-17T16:52:13.145Z,1.60
2022-09-17T16:54:42.354Z,1.60
2022-09-17T16:57:10.217Z,1.83
2022-09-17T16:59:38.089Z,2.00
2022-09-17T17:02:07.904Z,2.67
2022-09-17T17:04:39.238Z,1.70
2022-09-17T17:07:07.122Z,1.93
2022-09-17T17:09:35.709Z,1.70
2022-09-17T17:12:05.265Z,1.90
2022-09-17T17:14:33.194Z,1.80
2022-09-17T17:17:01.055Z,1.90
2022-09-17T17:19:30.421Z,1.70
2022-09-17T17:21:58.265Z,2.13
2022-09-17T17:24:26.365Z,2.00
2022-09-17T17:26:54.239Z,2.03
2022-09-17T17:29:23.483Z,2.63
2022-09-17T17:31:51.527Z,2.20
2022-09-17T17:34:19.560Z,2.20
2022-09-17T17:36:49.563Z,1.97
2022-09-17T17:39:17.431Z,1.97
2022-09-17T17:41:49.658Z,1.77
2022-09-17T17:44:19.442Z,2.20
2022-09-17T17:46:48.668Z,3.20
2022-09-17T17:49:16.972Z,1.93
2022-09-17T17:51:45.009Z,2.00
2022-09-17T17:54:12.919Z,1.90
2022-09-17T17:56:40.817Z,2.10
2022-09-17T17:59:08.700Z,2.10
2022-09-17T18:01:38.190Z,2.00
2022-09-17T18:04:08.382Z,3.13
2022-09-17T18:06:36.256Z,2.33
2022-09-17T18:09:04.449Z,2.20
2022-09-17T18:11:32.279Z,3.87
2022-09-17T18:14:00.909Z,2.40
2022-09-17T18:16:29.205Z,3.60
2022-09-17T18:18:57.576Z,2.40
2022-09-17T18:21:27.546Z,2.87
2022-09-17T18:23:55.419Z,2.10
2022-09-17T18:26:24.573Z,2.20
2022-09-17T18:28:52.843Z,2.10
2022-09-17T18:31:22.984Z,2.10
2022-09-17T18:33:51.583Z,2.10
2022-09-17T18:36:19.417Z,2.10
2022-09-17T18:38:48.676Z,2.03
2022-09-17T18:41:16.538Z,2.17
2022-09-17T18:43:44.583Z,1.80
2022-09-17T18:46:12.508Z,2.30
2022-09-17T18:48:41.150Z,2.20
2022-09-17T18:51:11.075Z,2.20
2022-09-17T18:53:39.457Z,2.40
2022-09-17T18:56:11.660Z,2.07
2022-09-17T18:58:39.532Z,2.00
2022-09-17T19:01:07.693Z,2.00
2022-09-17T19:03:35.736Z,1.70
2022-09-17T19:06:04.151Z,2.07
2022-09-17T19:08:32.097Z,1.93
2022-09-17T19:10:59.978Z,1.93
2022-09-17T19:13:33.925Z,1.73
2022-09-17T19:16:02.511Z,1.60
2022-09-17T19:18:30.492Z,2.03
2022-09-17T19:21:01.769Z,1.70
2022-09-17T19:23:30.911Z,1.70
2022-09-17T19:25:58.830Z,1.80
2022-09-17T19:28:26.935Z,1.77
2022-09-17T19:30:56.215Z,1.83
2022-09-17T19:33:24.078Z,1.87
2022-09-17T19:35:52.576Z,1.53
2022-09-17T19:38:20.439Z,1.97
2022-09-17T19:40:56.804Z,1.63
2022-09-17T19:43:24.893Z,1.87
2022-09-17T19:45:52.810Z,1.97
2022-09-17T19:48:25.158Z,1.70
2022-09-17T19:50:53.442Z,1.60
2022-09-17T19:53:21.349Z,1.70
2022-09-17T19:55:49.324Z,1.90
2022-09-17T19:58:17.439Z,1.87
2022-09-17T20:00:48.065Z,1.47
2022-09-17T20:03:16.028Z,1.53
2022-09-17T20:05:45.241Z,1.63
2022-09-17T20:08:13.118Z,1.40
2022-09-17T20:10:41.017Z,1.57
2022-09-17T20:13:08.877Z,1.40
2022-09-17T20:15:36.974Z,1.47
2022-09-17T20:18:05.141Z,1.73
2022-09-17T20:20:33.037Z,1.50
2022-09-17T20:23:04.005Z,1.90
2022-09-17T20:25:31.922Z,1.63
2022-09-17T20:27:59.775Z,1.53
2022-09-17T20:30:27.711Z,1.70
2022-09-17T20:32:56.005Z,1.40
2022-09-17T20:35:23.947Z,1.43
2022-09-17T20:40:41.100Z,1.40
2022-09-17T20:43:08.966Z,1.40
2022-09-17T20:45:36.850Z,1.80
2022-09-17T20:48:04.861Z,1.27
2022-09-17T20:50:32.745Z,1.40
2022-09-17T20:53:00.624Z,1.33
2022-09-17T20:55:29.394Z,1.50
2022-09-17T20:57:58.593Z,1.37
2022-09-17T21:00:29.117Z,1.50
2022-09-17T21:02:56.949Z,1.50
2022-09-17T21:05:24.830Z,1.30
2022-09-17T21:07:52.674Z,1.37
2022-09-17T21:10:20.555Z,1.20
2022-09-17T21:12:48.385Z,1.23
2022-09-17T21:15:17.655Z,1.37
2022-09-17T21:17:46.640Z,1.30
2022-09-17T21:20:14.679Z,1.40
2022-09-17T21:22:43.540Z,1.30
2022-09-17T21:25:11.378Z,1.30
2022-09-17T21:27:39.222Z,1.47
2022-09-17T21:30:09.592Z,1.37
2022-09-17T21:32:38.816Z,1.33
2022-09-17T21:35:07.028Z,1.60
2022-09-17T21:37:34.892Z,1.23
2022-09-17T21:40:03.383Z,1.50
2022-09-17T21:42:32.884Z,1.27
2022-09-17T21:45:00.781Z,1.30
2022-09-17T21:47:29.070Z,1.40
2022-09-17T21:49:58.261Z,1.10
2022-09-17T21:52:26.105Z,1.20
2022-09-17T21:54:53.987Z,1.27
2022-09-17T21:57:21.828Z,1.10
2022-09-17T21:59:49.698Z,0.97
2022-09-17T22:02:17.898Z,0.90
2022-09-17T22:04:45.798Z,1.20
2022-09-17T22:07:15.005Z,1.20
2022-09-17T22:09:42.881Z,1.20
2022-09-17T22:12:11.287Z,1.13
2022-09-17T22:14:39.170Z,1.20
2022-09-17T22:17:07.450Z,1.00
2022-09-17T22:19:35.448Z,1.00
2022-09-17T22:22:03.302Z,1.00
2022-09-17T22:24:32.551Z,1.30
2022-09-17T22:27:00.384Z,1.23
2022-09-17T22:29:30.136Z,1.10
2022-09-17T22:31:58.133Z,1.00
2022-09-17T22:34:26.821Z,1.10
2022-09-17T22:36:58.236Z,0.90
2022-09-17T22:39:26.124Z,1.20
2022-09-17T22:41:56.160Z,1.03
2022-09-17T22:44:24.052Z,1.03
2022-09-17T22:46:52.627Z,0.90
2022-09-17T22:49:20.573Z,1.10
2022-09-17T22:51:48.430Z,1.07
2022-09-17T22:54:17.349Z,1.23
2022-09-17T22:56:45.617Z,1.00
2022-09-17T22:59:14.869Z,1.00
2022-09-17T23:01:43.004Z,1.00
2022-09-17T23:04:10.950Z,1.17
2022-09-17T23:06:42.403Z,1.07
2022-09-17T23:09:10.315Z,1.10
2022-09-17T23:11:38.951Z,1.10
2022-09-17T23:14:07.954Z,1.20
2022-09-17T23:16:38.230Z,0.90
2022-09-17T23:19:06.231Z,1.07
2022-09-17T23:21:34.106Z,1.00
2022-09-17T23:24:03.513Z,1.13
2022-09-17T23:26:31.415Z,1.17
2022-09-17T23:29:04.368Z,1.00
2022-09-17T23:31:34.567Z,1.30
2022-09-17T23:34:04.385Z,1.10
2022-09-17T23:36:34.229Z,0.87
2022-09-17T23:39:02.918Z,1.33
2022-09-17T23:41:31.679Z,0.90
2022-09-17T23:44:00.545Z,0.83
2022-09-17T23:46:31.096Z,1.20
2022-09-17T23:48:59.133Z,1.10
2022-09-17T23:51:30.599Z,0.90
2022-09-17T23:53:58.737Z,1.07
2022-09-17T23:56:27.187Z,1.10
2022-09-17T23:58:55.474Z,0.90
